sensor_id;sensor_type;location;lat;lon;timestamp;temperature;humidity
47310;DHT22;33046;52.270;6.832;2022-11-04T00:00:45;14.20;99.90
47310;DHT22;33046;52.270;6.832;2022-11-04T00:02:52;14.20;99.90
47310;DHT22;33046;52.270;6.832;2022-11-04T00:04:59;14.20;99.90
47310;DHT22;33046;52.270;6.832;2022-11-04T00:07:07;14.20;99.90
47310;DHT22;33046;52.270;6.832;2022-11-04T00:09:16;14.20;99.90
47310;DHT22;33046;52.270;6.832;2022-11-04T00:11:24;14.20;99.90
47310;DHT22;33046;52.270;6.832;2022-11-04T00:13:31;14.20;99.90
47310;DHT22;33046;52.270;6.832;2022-11-04T00:15:38;14.10;99.90
47310;DHT22;33046;52.270;6.832;2022-11-04T00:17:44;14.10;99.90
47310;DHT22;33046;52.270;6.832;2022-11-04T00:19:52;14.10;99.90
47310;DHT22;33046;52.270;6.832;2022-11-04T00:21:59;14.10;99.90
47310;DHT22;33046;52.270;6.832;2022-11-04T00:24:09;14.10;99.90
47310;DHT22;33046;52.270;6.832;2022-11-04T00:26:16;14.10;99.90
47310;DHT22;33046;52.270;6.832;2022-11-04T00:28:23;14.10;99.90
47310;DHT22;33046;52.270;6.832;2022-11-04T00:30:30;14.00;99.90
47310;DHT22;33046;52.270;6.832;2022-11-04T00:32:37;14.00;99.90
47310;DHT22;33046;52.270;6.832;2022-11-04T00:34:43;14.00;99.90
47310;DHT22;33046;52.270;6.832;2022-11-04T00:36:50;14.00;99.90
47310;DHT22;33046;52.270;6.832;2022-11-04T00:38:57;14.00;99.90
47310;DHT22;33046;52.270;6.832;2022-11-04T00:41:05;14.00;99.90
47310;DHT22;33046;52.270;6.832;2022-11-04T00:43:12;14.00;99.90
47310;DHT22;33046;52.270;6.832;2022-11-04T00:45:19;14.00;99.90
47310;DHT22;33046;52.270;6.832;2022-11-04T00:47:25;14.00;99.90
47310;DHT22;33046;52.270;6.832;2022-11-04T00:49:32;14.00;99.90
47310;DHT22;33046;52.270;6.832;2022-11-04T00:51:39;13.90;99.90
47310;DHT22;33046;52.270;6.832;2022-11-04T00:53:46;13.90;99.90
47310;DHT22;33046;52.270;6.832;2022-11-04T00:55:58;13.90;99.90
47310;DHT22;33046;52.270;6.832;2022-11-04T00:58:06;14.00;99.90
47310;DHT22;33046;52.270;6.832;2022-11-04T01:00:13;13.90;99.90
47310;DHT22;33046;52.270;6.832;2022-11-04T01:02:20;13.90;99.90
47310;DHT22;33046;52.270;6.832;2022-11-04T01:04:27;13.90;99.90
47310;DHT22;33046;52.270;6.832;2022-11-04T01:06:34;13.90;99.90
47310;DHT22;33046;52.270;6.832;2022-11-04T01:08:41;13.90;99.90
47310;DHT22;33046;52.270;6.832;2022-11-04T01:10:48;13.90;99.90
47310;DHT22;33046;52.270;6.832;2022-11-04T01:12:55;13.90;99.90
47310;DHT22;33046;52.270;6.832;2022-11-04T01:15:03;13.90;99.90
47310;DHT22;33046;52.270;6.832;2022-11-04T01:17:10;13.90;99.90
47310;DHT22;33046;52.270;6.832;2022-11-04T01:19:17;13.90;99.90
47310;DHT22;33046;52.270;6.832;2022-11-04T01:21:24;13.90;99.90
47310;DHT22;33046;52.270;6.832;2022-11-04T01:23:31;13.90;99.90
47310;DHT22;33046;52.270;6.832;2022-11-04T01:25:39;13.90;99.90
47310;DHT22;33046;52.270;6.832;2022-11-04T01:27:46;13.80;99.90
47310;DHT22;33046;52.270;6.832;2022-11-04T01:29:53;13.80;99.90
47310;DHT22;33046;52.270;6.832;2022-11-04T01:32:01;13.80;99.90
47310;DHT22;33046;52.270;6.832;2022-11-04T01:34:08;13.80;99.90
47310;DHT22;33046;52.270;6.832;2022-11-04T01:36:15;13.80;99.90
47310;DHT22;33046;52.270;6.832;2022-11-04T01:38:22;13.80;99.90
47310;DHT22;33046;52.270;6.832;2022-11-04T01:40:28;13.80;99.90
47310;DHT22;33046;52.270;6.832;2022-11-04T01:42:35;13.80;99.90
47310;DHT22;33046;52.270;6.832;2022-11-04T01:44:49;13.80;99.90
47310;DHT22;33046;52.270;6.832;2022-11-04T01:46:57;13.80;99.90
47310;DHT22;33046;52.270;6.832;2022-11-04T01:49:16;13.80;99.90
47310;DHT22;33046;52.270;6.832;2022-11-04T01:51:25;13.80;99.90
47310;DHT22;33046;52.270;6.832;2022-11-04T01:53:34;13.80;99.90
47310;DHT22;33046;52.270;6.832;2022-11-04T01:55:48;13.80;99.90
47310;DHT22;33046;52.270;6.832;2022-11-04T01:58:01;13.80;99.90
47310;DHT22;33046;52.270;6.832;2022-11-04T02:00:10;13.80;99.90
47310;DHT22;33046;52.270;6.832;2022-11-04T02:02:17;13.70;99.90
47310;DHT22;33046;52.270;6.832;2022-11-04T02:04:25;13.70;99.90
47310;DHT22;33046;52.270;6.832;2022-11-04T02:06:32;13.80;99.90
47310;DHT22;33046;52.270;6.832;2022-11-04T02:08:40;13.70;99.90
47310;DHT22;33046;52.270;6.832;2022-11-04T02:10:50;13.80;99.90
47310;DHT22;33046;52.270;6.832;2022-11-04T02:13:00;13.70;99.90
47310;DHT22;33046;52.270;6.832;2022-11-04T02:15:07;13.70;99.90
47310;DHT22;33046;52.270;6.832;2022-11-04T02:17:28;13.70;99.90
47310;DHT22;33046;52.270;6.832;2022-11-04T02:22:30;13.80;99.90
47310;DHT22;33046;52.270;6.832;2022-11-04T02:24:52;13.70;99.90
47310;DHT22;33046;52.270;6.832;2022-11-04T02:29:45;13.70;99.90
47310;DHT22;33046;52.270;6.832;2022-11-04T02:32:02;13.70;99.90
47310;DHT22;33046;52.270;6.832;2022-11-04T02:34:16;13.70;99.90
47310;DHT22;33046;52.270;6.832;2022-11-04T02:36:31;13.60;99.90
47310;DHT22;33046;52.270;6.832;2022-11-04T02:38:45;13.60;99.90
47310;DHT22;33046;52.270;6.832;2022-11-04T02:41:00;13.70;99.90
47310;DHT22;33046;52.270;6.832;2022-11-04T02:43:14;13.60;99.90
47310;DHT22;33046;52.270;6.832;2022-11-04T02:45:26;13.70;99.90
47310;DHT22;33046;52.270;6.832;2022-11-04T02:47:36;13.60;99.90
47310;DHT22;33046;52.270;6.832;2022-11-04T02:49:48;13.60;99.90
47310;DHT22;33046;52.270;6.832;2022-11-04T02:51:59;13.60;99.90
47310;DHT22;33046;52.270;6.832;2022-11-04T02:54:10;13.50;99.90
47310;DHT22;33046;52.270;6.832;2022-11-04T02:56:21;13.50;99.90
47310;DHT22;33046;52.270;6.832;2022-11-04T02:58:31;13.50;99.90
47310;DHT22;33046;52.270;6.832;2022-11-04T03:00:41;13.50;99.90
47310;DHT22;33046;52.270;6.832;2022-11-04T03:02:53;13.50;99.90
47310;DHT22;33046;52.270;6.832;2022-11-04T03:05:02;13.50;99.90
47310;DHT22;33046;52.270;6.832;2022-11-04T03:07:14;13.50;99.90
47310;DHT22;33046;52.270;6.832;2022-11-04T03:09:22;13.50;99.90
47310;DHT22;33046;52.270;6.832;2022-11-04T03:11:30;13.50;99.90
47310;DHT22;33046;52.270;6.832;2022-11-04T03:13:40;13.40;99.90
47310;DHT22;33046;52.270;6.832;2022-11-04T03:15:55;13.40;99.90
47310;DHT22;33046;52.270;6.832;2022-11-04T03:18:11;13.40;99.90
47310;DHT22;33046;52.270;6.832;2022-11-04T03:20:23;13.40;99.90
47310;DHT22;33046;52.270;6.832;2022-11-04T03:22:34;13.40;99.90
47310;DHT22;33046;52.270;6.832;2022-11-04T03:24:41;13.40;99.90
47310;DHT22;33046;52.270;6.832;2022-11-04T03:26:54;13.40;99.90
47310;DHT22;33046;52.270;6.832;2022-11-04T03:29:15;13.40;99.90
47310;DHT22;33046;52.270;6.832;2022-11-04T03:31:30;13.40;99.90
47310;DHT22;33046;52.270;6.832;2022-11-04T03:33:44;13.40;99.90
47310;DHT22;33046;52.270;6.832;2022-11-04T03:35:53;13.40;99.90
47310;DHT22;33046;52.270;6.832;2022-11-04T03:37:59;13.40;99.90
47310;DHT22;33046;52.270;6.832;2022-11-04T03:40:08;13.30;99.90
47310;DHT22;33046;52.270;6.832;2022-11-04T03:42:17;13.40;99.90
47310;DHT22;33046;52.270;6.832;2022-11-04T03:44:25;13.30;99.90
47310;DHT22;33046;52.270;6.832;2022-11-04T03:46:33;13.30;99.90
47310;DHT22;33046;52.270;6.832;2022-11-04T03:48:41;13.30;99.90
47310;DHT22;33046;52.270;6.832;2022-11-04T03:50:49;13.30;99.90
47310;DHT22;33046;52.270;6.832;2022-11-04T03:52:56;13.30;99.90
47310;DHT22;33046;52.270;6.832;2022-11-04T03:55:06;13.30;99.90
47310;DHT22;33046;52.270;6.832;2022-11-04T04:00:02;13.30;99.90
47310;DHT22;33046;52.270;6.832;2022-11-04T04:02:15;13.30;99.90
47310;DHT22;33046;52.270;6.832;2022-11-04T04:04:28;13.20;99.90
47310;DHT22;33046;52.270;6.832;2022-11-04T04:06:35;13.20;99.90
47310;DHT22;33046;52.270;6.832;2022-11-04T04:08:45;13.20;99.90
47310;DHT22;33046;52.270;6.832;2022-11-04T04:11:01;13.20;99.90
47310;DHT22;33046;52.270;6.832;2022-11-04T04:13:22;13.20;99.90
47310;DHT22;33046;52.270;6.832;2022-11-04T04:15:41;13.20;99.90
47310;DHT22;33046;52.270;6.832;2022-11-04T04:17:53;13.20;99.90
47310;DHT22;33046;52.270;6.832;2022-11-04T04:20:02;13.20;99.90
47310;DHT22;33046;52.270;6.832;2022-11-04T04:22:12;13.20;99.90
47310;DHT22;33046;52.270;6.832;2022-11-04T04:24:23;13.20;99.90
47310;DHT22;33046;52.270;6.832;2022-11-04T04:26:32;13.10;99.90
47310;DHT22;33046;52.270;6.832;2022-11-04T04:28:40;13.10;99.90
47310;DHT22;33046;52.270;6.832;2022-11-04T04:30:48;13.10;99.90
47310;DHT22;33046;52.270;6.832;2022-11-04T04:32:58;13.10;99.90
47310;DHT22;33046;52.270;6.832;2022-11-04T04:35:06;13.10;99.90
47310;DHT22;33046;52.270;6.832;2022-11-04T04:37:18;13.10;99.90
47310;DHT22;33046;52.270;6.832;2022-11-04T04:39:30;13.10;99.90
47310;DHT22;33046;52.270;6.832;2022-11-04T04:41:38;13.10;99.90
47310;DHT22;33046;52.270;6.832;2022-11-04T04:43:44;13.10;99.90
47310;DHT22;33046;52.270;6.832;2022-11-04T04:45:52;13.10;99.90
47310;DHT22;33046;52.270;6.832;2022-11-04T04:48:03;13.10;99.90
47310;DHT22;33046;52.270;6.832;2022-11-04T04:50:13;13.10;99.90
47310;DHT22;33046;52.270;6.832;2022-11-04T04:52:21;13.10;99.90
47310;DHT22;33046;52.270;6.832;2022-11-04T04:54:28;13.10;99.90
47310;DHT22;33046;52.270;6.832;2022-11-04T04:56:35;13.10;99.90
47310;DHT22;33046;52.270;6.832;2022-11-04T04:58:42;13.10;99.90
47310;DHT22;33046;52.270;6.832;2022-11-04T05:00:49;13.10;99.90
47310;DHT22;33046;52.270;6.832;2022-11-04T05:02:55;13.10;99.90
47310;DHT22;33046;52.270;6.832;2022-11-04T05:05:04;13.00;99.90
47310;DHT22;33046;52.270;6.832;2022-11-04T05:07:11;13.00;99.90
47310;DHT22;33046;52.270;6.832;2022-11-04T05:09:18;13.00;99.90
47310;DHT22;33046;52.270;6.832;2022-11-04T05:11:25;13.00;99.90
47310;DHT22;33046;52.270;6.832;2022-11-04T05:13:32;13.00;99.90
47310;DHT22;33046;52.270;6.832;2022-11-04T05:15:39;12.90;99.90
47310;DHT22;33046;52.270;6.832;2022-11-04T05:17:46;13.00;99.90
47310;DHT22;33046;52.270;6.832;2022-11-04T05:19:53;13.00;99.90
47310;DHT22;33046;52.270;6.832;2022-11-04T05:22:01;13.00;99.90
47310;DHT22;33046;52.270;6.832;2022-11-04T05:24:08;13.00;99.90
47310;DHT22;33046;52.270;6.832;2022-11-04T05:26:15;13.00;99.90
47310;DHT22;33046;52.270;6.832;2022-11-04T05:28:22;13.00;99.90
47310;DHT22;33046;52.270;6.832;2022-11-04T05:30:28;12.90;99.90
47310;DHT22;33046;52.270;6.832;2022-11-04T05:32:35;12.90;99.90
47310;DHT22;33046;52.270;6.832;2022-11-04T05:34:42;12.90;99.90
47310;DHT22;33046;52.270;6.832;2022-11-04T05:36:49;12.90;99.90
47310;DHT22;33046;52.270;6.832;2022-11-04T05:38:57;12.90;99.90
47310;DHT22;33046;52.270;6.832;2022-11-04T05:41:05;12.90;99.90
47310;DHT22;33046;52.270;6.832;2022-11-04T05:43:12;12.90;99.90
47310;DHT22;33046;52.270;6.832;2022-11-04T05:45:19;12.80;99.90
47310;DHT22;33046;52.270;6.832;2022-11-04T05:47:25;12.80;99.90
47310;DHT22;33046;52.270;6.832;2022-11-04T05:49:32;12.80;99.90
47310;DHT22;33046;52.270;6.832;2022-11-04T05:51:39;12.80;99.90
47310;DHT22;33046;52.270;6.832;2022-11-04T05:53:45;12.80;99.90
47310;DHT22;33046;52.270;6.832;2022-11-04T05:55:53;12.80;99.90
47310;DHT22;33046;52.270;6.832;2022-11-04T05:58:00;12.80;99.90
47310;DHT22;33046;52.270;6.832;2022-11-04T06:00:08;12.80;99.90
47310;DHT22;33046;52.270;6.832;2022-11-04T06:02:16;12.70;99.90
47310;DHT22;33046;52.270;6.832;2022-11-04T06:04:22;12.80;99.90
47310;DHT22;33046;52.270;6.832;2022-11-04T06:06:31;12.70;99.90
47310;DHT22;33046;52.270;6.832;2022-11-04T06:08:37;12.70;99.90
47310;DHT22;33046;52.270;6.832;2022-11-04T06:10:46;12.70;99.90
47310;DHT22;33046;52.270;6.832;2022-11-04T06:12:54;12.70;99.90
47310;DHT22;33046;52.270;6.832;2022-11-04T06:15:01;12.70;99.90
47310;DHT22;33046;52.270;6.832;2022-11-04T06:17:12;12.60;99.90
47310;DHT22;33046;52.270;6.832;2022-11-04T06:19:19;12.60;99.90
47310;DHT22;33046;52.270;6.832;2022-11-04T06:21:28;12.60;99.90
47310;DHT22;33046;52.270;6.832;2022-11-04T06:23:35;12.60;99.90
47310;DHT22;33046;52.270;6.832;2022-11-04T06:25:42;12.60;99.90
47310;DHT22;33046;52.270;6.832;2022-11-04T06:27:48;12.60;99.90
47310;DHT22;33046;52.270;6.832;2022-11-04T06:29:56;12.60;99.90
47310;DHT22;33046;52.270;6.832;2022-11-04T06:32:04;12.50;99.90
47310;DHT22;33046;52.270;6.832;2022-11-04T06:34:10;12.50;99.90
47310;DHT22;33046;52.270;6.832;2022-11-04T06:36:17;12.50;99.90
47310;DHT22;33046;52.270;6.832;2022-11-04T06:38:24;12.50;99.90
47310;DHT22;33046;52.270;6.832;2022-11-04T06:40:31;12.50;99.90
47310;DHT22;33046;52.270;6.832;2022-11-04T06:42:38;12.50;99.90
47310;DHT22;33046;52.270;6.832;2022-11-04T06:44:44;12.50;99.90
47310;DHT22;33046;52.270;6.832;2022-11-04T06:46:52;12.50;99.90
47310;DHT22;33046;52.270;6.832;2022-11-04T06:48:59;12.40;99.90
47310;DHT22;33046;52.270;6.832;2022-11-04T06:51:06;12.50;99.90
47310;DHT22;33046;52.270;6.832;2022-11-04T06:53:13;12.50;99.90
47310;DHT22;33046;52.270;6.832;2022-11-04T06:55:19;12.50;99.90
47310;DHT22;33046;52.270;6.832;2022-11-04T06:57:26;12.50;99.90
47310;DHT22;33046;52.270;6.832;2022-11-04T06:59:33;12.50;99.90
47310;DHT22;33046;52.270;6.832;2022-11-04T07:01:40;12.40;99.90
47310;DHT22;33046;52.270;6.832;2022-11-04T07:03:49;12.50;99.90
47310;DHT22;33046;52.270;6.832;2022-11-04T07:05:56;12.50;99.90
47310;DHT22;33046;52.270;6.832;2022-11-04T07:08:03;12.60;99.90
47310;DHT22;33046;52.270;6.832;2022-11-04T07:10:10;12.60;99.90
47310;DHT22;33046;52.270;6.832;2022-11-04T07:12:16;12.50;99.90
47310;DHT22;33046;52.270;6.832;2022-11-04T07:14:23;12.60;99.90
47310;DHT22;33046;52.270;6.832;2022-11-04T07:16:30;12.60;99.90
47310;DHT22;33046;52.270;6.832;2022-11-04T07:18:37;12.60;99.90
47310;DHT22;33046;52.270;6.832;2022-11-04T07:20:45;12.60;99.90
47310;DHT22;33046;52.270;6.832;2022-11-04T07:22:53;12.60;99.90
47310;DHT22;33046;52.270;6.832;2022-11-04T07:24:59;12.60;99.90
47310;DHT22;33046;52.270;6.832;2022-11-04T07:27:06;12.70;99.90
47310;DHT22;33046;52.270;6.832;2022-11-04T07:29:13;12.70;99.90
47310;DHT22;33046;52.270;6.832;2022-11-04T07:31:20;12.70;99.90
47310;DHT22;33046;52.270;6.832;2022-11-04T07:33:27;12.70;99.90
47310;DHT22;33046;52.270;6.832;2022-11-04T07:35:35;12.70;99.90
47310;DHT22;33046;52.270;6.832;2022-11-04T07:37:43;12.70;99.90
47310;DHT22;33046;52.270;6.832;2022-11-04T07:39:49;12.80;99.90
47310;DHT22;33046;52.270;6.832;2022-11-04T07:41:56;12.80;99.90
47310;DHT22;33046;52.270;6.832;2022-11-04T07:44:05;12.80;99.90
47310;DHT22;33046;52.270;6.832;2022-11-04T07:46:12;12.80;99.90
47310;DHT22;33046;52.270;6.832;2022-11-04T07:48:18;12.80;99.90
47310;DHT22;33046;52.270;6.832;2022-11-04T07:50:25;12.80;99.90
47310;DHT22;33046;52.270;6.832;2022-11-04T07:52:32;12.80;99.90
47310;DHT22;33046;52.270;6.832;2022-11-04T07:54:40;12.80;99.90
47310;DHT22;33046;52.270;6.832;2022-11-04T07:56:47;12.90;99.90
47310;DHT22;33046;52.270;6.832;2022-11-04T07:58:53;12.90;99.90
47310;DHT22;33046;52.270;6.832;2022-11-04T08:01:02;12.90;99.90
47310;DHT22;33046;52.270;6.832;2022-11-04T08:03:09;12.90;99.90
47310;DHT22;33046;52.270;6.832;2022-11-04T08:05:16;12.90;99.90
47310;DHT22;33046;52.270;6.832;2022-11-04T08:07:23;12.90;99.90
47310;DHT22;33046;52.270;6.832;2022-11-04T08:09:30;12.90;99.90
47310;DHT22;33046;52.270;6.832;2022-11-04T08:11:38;12.90;99.90
47310;DHT22;33046;52.270;6.832;2022-11-04T08:13:45;12.90;99.90
47310;DHT22;33046;52.270;6.832;2022-11-04T08:15:52;12.90;99.90
47310;DHT22;33046;52.270;6.832;2022-11-04T08:17:59;13.00;99.90
47310;DHT22;33046;52.270;6.832;2022-11-04T08:20:06;13.00;99.90
47310;DHT22;33046;52.270;6.832;2022-11-04T08:22:13;13.00;99.90
47310;DHT22;33046;52.270;6.832;2022-11-04T08:24:20;13.00;99.90
47310;DHT22;33046;52.270;6.832;2022-11-04T08:26:26;13.00;99.90
47310;DHT22;33046;52.270;6.832;2022-11-04T08:28:35;13.10;99.90
47310;DHT22;33046;52.270;6.832;2022-11-04T08:30:51;13.10;99.90
47310;DHT22;33046;52.270;6.832;2022-11-04T08:32:57;13.10;99.90
47310;DHT22;33046;52.270;6.832;2022-11-04T08:35:05;13.10;99.90
47310;DHT22;33046;52.270;6.832;2022-11-04T08:37:13;13.10;99.90
47310;DHT22;33046;52.270;6.832;2022-11-04T08:39:19;13.20;99.90
47310;DHT22;33046;52.270;6.832;2022-11-04T08:41:28;13.20;99.90
47310;DHT22;33046;52.270;6.832;2022-11-04T08:43:36;13.20;99.90
47310;DHT22;33046;52.270;6.832;2022-11-04T08:45:45;13.20;99.90
47310;DHT22;33046;52.270;6.832;2022-11-04T08:47:51;13.20;99.90
47310;DHT22;33046;52.270;6.832;2022-11-04T08:49:58;13.20;99.90
47310;DHT22;33046;52.270;6.832;2022-11-04T08:52:05;13.20;99.90
47310;DHT22;33046;52.270;6.832;2022-11-04T08:54:12;13.30;99.90
47310;DHT22;33046;52.270;6.832;2022-11-04T08:56:20;13.20;99.90
47310;DHT22;33046;52.270;6.832;2022-11-04T08:58:28;13.20;99.90
47310;DHT22;33046;52.270;6.832;2022-11-04T09:00:36;13.20;99.90
47310;DHT22;33046;52.270;6.832;2022-11-04T09:02:43;13.20;99.90
47310;DHT22;33046;52.270;6.832;2022-11-04T09:04:49;13.20;99.90
47310;DHT22;33046;52.270;6.832;2022-11-04T09:06:56;13.30;99.90
47310;DHT22;33046;52.270;6.832;2022-11-04T09:09:03;13.30;99.90
47310;DHT22;33046;52.270;6.832;2022-11-04T09:11:12;13.20;99.90
47310;DHT22;33046;52.270;6.832;2022-11-04T09:13:19;13.20;99.90
47310;DHT22;33046;52.270;6.832;2022-11-04T09:15:26;13.30;99.90
47310;DHT22;33046;52.270;6.832;2022-11-04T09:17:34;13.30;99.90
47310;DHT22;33046;52.270;6.832;2022-11-04T09:19:40;13.40;99.90
47310;DHT22;33046;52.270;6.832;2022-11-04T09:21:47;13.40;99.90
47310;DHT22;33046;52.270;6.832;2022-11-04T09:23:54;13.40;99.90
47310;DHT22;33046;52.270;6.832;2022-11-04T09:26:07;13.50;99.90
47310;DHT22;33046;52.270;6.832;2022-11-04T09:28:14;13.50;99.90
47310;DHT22;33046;52.270;6.832;2022-11-04T09:30:21;13.60;99.90
47310;DHT22;33046;52.270;6.832;2022-11-04T09:32:27;13.60;99.90
47310;DHT22;33046;52.270;6.832;2022-11-04T09:34:35;13.70;99.90
47310;DHT22;33046;52.270;6.832;2022-11-04T09:36:42;13.70;99.90
47310;DHT22;33046;52.270;6.832;2022-11-04T09:38:49;13.80;99.90
47310;DHT22;33046;52.270;6.832;2022-11-04T09:40:58;13.80;99.90
47310;DHT22;33046;52.270;6.832;2022-11-04T09:43:13;13.80;99.90
47310;DHT22;33046;52.270;6.832;2022-11-04T09:45:26;13.80;99.90
47310;DHT22;33046;52.270;6.832;2022-11-04T09:47:35;13.70;99.90
47310;DHT22;33046;52.270;6.832;2022-11-04T09:49:47;13.70;99.90
47310;DHT22;33046;52.270;6.832;2022-11-04T09:51:55;13.70;99.90
47310;DHT22;33046;52.270;6.832;2022-11-04T09:54:09;13.70;99.90
47310;DHT22;33046;52.270;6.832;2022-11-04T09:56:20;13.70;99.90
47310;DHT22;33046;52.270;6.832;2022-11-04T09:58:30;13.70;99.90
47310;DHT22;33046;52.270;6.832;2022-11-04T10:00:38;13.70;99.90
47310;DHT22;33046;52.270;6.832;2022-11-04T10:02:55;13.70;99.90
47310;DHT22;33046;52.270;6.832;2022-11-04T10:05:17;13.80;99.90
47310;DHT22;33046;52.270;6.832;2022-11-04T10:07:40;13.80;99.90
47310;DHT22;33046;52.270;6.832;2022-11-04T10:09:58;13.90;99.90
47310;DHT22;33046;52.270;6.832;2022-11-04T10:12:18;13.90;99.90
47310;DHT22;33046;52.270;6.832;2022-11-04T10:14:40;14.00;99.90
47310;DHT22;33046;52.270;6.832;2022-11-04T10:16:58;14.00;99.90
47310;DHT22;33046;52.270;6.832;2022-11-04T10:19:17;14.10;99.90
47310;DHT22;33046;52.270;6.832;2022-11-04T10:21:34;14.10;99.90
47310;DHT22;33046;52.270;6.832;2022-11-04T10:23:54;14.10;99.90
47310;DHT22;33046;52.270;6.832;2022-11-04T10:26:08;14.20;99.90
47310;DHT22;33046;52.270;6.832;2022-11-04T10:28:17;14.20;99.90
47310;DHT22;33046;52.270;6.832;2022-11-04T10:30:25;14.30;99.90
47310;DHT22;33046;52.270;6.832;2022-11-04T10:32:35;14.30;99.90
47310;DHT22;33046;52.270;6.832;2022-11-04T10:34:49;14.30;99.90
47310;DHT22;33046;52.270;6.832;2022-11-04T10:36:59;14.30;99.90
47310;DHT22;33046;52.270;6.832;2022-11-04T10:39:12;14.30;99.90
47310;DHT22;33046;52.270;6.832;2022-11-04T10:41:25;14.30;99.90
47310;DHT22;33046;52.270;6.832;2022-11-04T10:43:35;14.30;99.90
47310;DHT22;33046;52.270;6.832;2022-11-04T10:45:47;14.40;99.90
47310;DHT22;33046;52.270;6.832;2022-11-04T10:48:00;14.40;99.90
47310;DHT22;33046;52.270;6.832;2022-11-04T10:50:17;14.40;99.90
47310;DHT22;33046;52.270;6.832;2022-11-04T10:52:35;14.40;99.90
47310;DHT22;33046;52.270;6.832;2022-11-04T10:54:43;14.50;99.90
47310;DHT22;33046;52.270;6.832;2022-11-04T10:56:51;14.50;99.90
47310;DHT22;33046;52.270;6.832;2022-11-04T10:59:04;14.50;99.90
47310;DHT22;33046;52.270;6.832;2022-11-04T11:01:25;14.50;99.90
47310;DHT22;33046;52.270;6.832;2022-11-04T11:03:33;14.50;99.90
47310;DHT22;33046;52.270;6.832;2022-11-04T11:05:40;14.50;99.90
47310;DHT22;33046;52.270;6.832;2022-11-04T11:07:50;14.50;99.90
47310;DHT22;33046;52.270;6.832;2022-11-04T11:09:57;14.50;99.90
47310;DHT22;33046;52.270;6.832;2022-11-04T11:12:11;14.50;99.90
47310;DHT22;33046;52.270;6.832;2022-11-04T11:14:43;14.50;99.80
47310;DHT22;33046;52.270;6.832;2022-11-04T11:16:50;14.50;99.90
47310;DHT22;33046;52.270;6.832;2022-11-04T11:19:12;14.50;99.90
47310;DHT22;33046;52.270;6.832;2022-11-04T11:21:19;14.50;99.90
47310;DHT22;33046;52.270;6.832;2022-11-04T11:23:36;14.60;99.90
47310;DHT22;33046;52.270;6.832;2022-11-04T11:25:44;14.50;99.90
47310;DHT22;33046;52.270;6.832;2022-11-04T11:27:57;14.50;99.90
47310;DHT22;33046;52.270;6.832;2022-11-04T11:30:05;14.50;99.90
47310;DHT22;33046;52.270;6.832;2022-11-04T11:32:23;14.50;99.90
47310;DHT22;33046;52.270;6.832;2022-11-04T11:34:36;14.40;99.80
47310;DHT22;33046;52.270;6.832;2022-11-04T11:36:44;14.50;99.90
47310;DHT22;33046;52.270;6.832;2022-11-04T11:39:03;14.50;99.90
47310;DHT22;33046;52.270;6.832;2022-11-04T11:41:12;14.50;99.90
47310;DHT22;33046;52.270;6.832;2022-11-04T11:43:36;14.40;99.70
47310;DHT22;33046;52.270;6.832;2022-11-04T11:45:46;14.40;99.70
47310;DHT22;33046;52.270;6.832;2022-11-04T11:47:54;14.40;99.80
47310;DHT22;33046;52.270;6.832;2022-11-04T11:50:06;14.40;99.80
47310;DHT22;33046;52.270;6.832;2022-11-04T11:52:30;14.50;99.90
47310;DHT22;33046;52.270;6.832;2022-11-04T11:54:39;14.50;99.90
47310;DHT22;33046;52.270;6.832;2022-11-04T11:56:49;14.40;99.90
47310;DHT22;33046;52.270;6.832;2022-11-04T11:59:25;14.40;99.90
47310;DHT22;33046;52.270;6.832;2022-11-04T12:02:03;14.40;99.90
47310;DHT22;33046;52.270;6.832;2022-11-04T12:04:15;14.30;99.90
47310;DHT22;33046;52.270;6.832;2022-11-04T12:06:49;14.40;99.90
47310;DHT22;33046;52.270;6.832;2022-11-04T12:09:27;14.40;99.40
47310;DHT22;33046;52.270;6.832;2022-11-04T12:11:49;14.40;99.70
47310;DHT22;33046;52.270;6.832;2022-11-04T12:14:00;14.40;99.80
47310;DHT22;33046;52.270;6.832;2022-11-04T12:16:23;14.40;99.80
47310;DHT22;33046;52.270;6.832;2022-11-04T12:18:43;14.40;99.70
47310;DHT22;33046;52.270;6.832;2022-11-04T12:20:58;14.40;99.80
47310;DHT22;33046;52.270;6.832;2022-11-04T12:23:12;14.40;99.70
47310;DHT22;33046;52.270;6.832;2022-11-04T12:25:24;14.40;99.80
47310;DHT22;33046;52.270;6.832;2022-11-04T12:27:40;14.40;99.60
47310;DHT22;33046;52.270;6.832;2022-11-04T12:30:02;14.40;99.50
47310;DHT22;33046;52.270;6.832;2022-11-04T12:32:15;14.40;99.50
47310;DHT22;33046;52.270;6.832;2022-11-04T12:34:35;14.30;99.70
47310;DHT22;33046;52.270;6.832;2022-11-04T12:36:58;14.30;99.60
47310;DHT22;33046;52.270;6.832;2022-11-04T12:39:18;14.30;99.90
47310;DHT22;33046;52.270;6.832;2022-11-04T12:41:30;14.30;99.80
47310;DHT22;33046;52.270;6.832;2022-11-04T12:43:58;14.30;99.90
47310;DHT22;33046;52.270;6.832;2022-11-04T12:46:12;14.30;99.70
47310;DHT22;33046;52.270;6.832;2022-11-04T12:48:36;14.30;99.70
47310;DHT22;33046;52.270;6.832;2022-11-04T12:50:54;14.30;99.70
47310;DHT22;33046;52.270;6.832;2022-11-04T12:53:15;14.30;99.60
47310;DHT22;33046;52.270;6.832;2022-11-04T12:55:36;14.30;99.50
47310;DHT22;33046;52.270;6.832;2022-11-04T12:57:54;14.30;99.70
47310;DHT22;33046;52.270;6.832;2022-11-04T13:00:13;14.20;99.60
47310;DHT22;33046;52.270;6.832;2022-11-04T13:02:22;14.30;99.40
47310;DHT22;33046;52.270;6.832;2022-11-04T13:04:35;14.30;99.60
47310;DHT22;33046;52.270;6.832;2022-11-04T13:06:45;14.30;99.80
47310;DHT22;33046;52.270;6.832;2022-11-04T13:08:56;14.20;99.80
47310;DHT22;33046;52.270;6.832;2022-11-04T13:11:09;14.20;99.70
47310;DHT22;33046;52.270;6.832;2022-11-04T13:13:17;14.30;99.90
47310;DHT22;33046;52.270;6.832;2022-11-04T13:15:29;14.30;99.80
47310;DHT22;33046;52.270;6.832;2022-11-04T13:17:42;14.30;99.70
47310;DHT22;33046;52.270;6.832;2022-11-04T13:19:50;14.20;99.70
47310;DHT22;33046;52.270;6.832;2022-11-04T13:22:02;14.30;99.90
47310;DHT22;33046;52.270;6.832;2022-11-04T13:24:16;14.30;99.90
47310;DHT22;33046;52.270;6.832;2022-11-04T13:26:25;14.20;99.90
47310;DHT22;33046;52.270;6.832;2022-11-04T13:28:32;14.30;99.90
47310;DHT22;33046;52.270;6.832;2022-11-04T13:30:47;14.30;99.90
47310;DHT22;33046;52.270;6.832;2022-11-04T13:32:58;14.20;99.90
47310;DHT22;33046;52.270;6.832;2022-11-04T13:35:16;14.20;99.90
47310;DHT22;33046;52.270;6.832;2022-11-04T13:37:30;14.20;99.90
47310;DHT22;33046;52.270;6.832;2022-11-04T13:39:40;14.20;99.90
47310;DHT22;33046;52.270;6.832;2022-11-04T13:44:43;14.20;99.90
47310;DHT22;33046;52.270;6.832;2022-11-04T13:46:53;14.20;99.70
47310;DHT22;33046;52.270;6.832;2022-11-04T13:49:03;14.20;99.80
47310;DHT22;33046;52.270;6.832;2022-11-04T13:51:12;14.20;99.70
47310;DHT22;33046;52.270;6.832;2022-11-04T13:53:18;14.20;99.80